Time;durP1;ratioP1;P1;durP2;ratioP2;P2;SDS_P1;SDS_P2;PMS_P1;PMS_P2;Temp;Humidity;BMP_temperature;BMP_pressure;BME280_temperature;BME280_humidity;BME280_pressure;Samples;Min_cycle;Max_cycle;Signal;HPM_P1;HPM_P2
2021/07/16 00:01:48;;;;;;;11.27;3.73;;;;;;;-145.18;100.00;60484.78;5078369;28;20027;-67
2021/07/16 00:04:13;;;;;;;8.23;3.13;;;;;;;-145.18;100.00;60484.78;5081912;28;20020;-67
2021/07/16 00:06:39;;;;;;;9.53;3.17;;;;;;;-145.18;100.00;60484.78;5077886;28;20032;-67
2021/07/16 00:09:05;;;;;;;17.70;3.53;;;;;;;-145.18;100.00;60484.78;5080846;28;20426;-67
2021/07/16 00:11:31;;;;;;;10.07;3.70;;;;;;;-145.18;100.00;60484.78;5078339;28;20134;-67
2021/07/16 00:13:57;;;;;;;13.37;3.40;;;;;;;-145.18;100.00;60484.78;5080806;28;20410;-68
2021/07/16 00:16:22;;;;;;;12.20;3.83;;;;;;;-145.18;100.00;60484.78;5079633;28;20131;-67
2021/07/16 00:18:48;;;;;;;7.83;3.20;;;;;;;-145.18;100.00;60484.78;5079981;28;20476;-67
2021/07/16 00:21:14;;;;;;;13.83;3.93;;;;;;;-145.18;100.00;60484.78;5081175;28;20067;-67
2021/07/16 00:23:40;;;;;;;12.67;3.50;;;;;;;-145.18;100.00;60484.78;5080408;28;20103;-68
2021/07/16 00:26:05;;;;;;;11.03;3.67;;;;;;;-145.18;100.00;60484.78;5081392;28;20111;-67
2021/07/16 00:28:37;;;;;;;8.97;3.30;;;;;;;-145.18;100.00;60484.78;5080917;28;20032;-67
2021/07/16 00:31:02;;;;;;;13.93;4.32;;;;;;;-145.18;100.00;60484.78;5084981;28;20095;-67
2021/07/16 00:33:28;;;;;;;8.83;3.40;;;;;;;-145.18;100.00;60484.78;5080009;28;20127;-67
2021/07/16 00:35:53;;;;;;;11.50;4.00;;;;;;;-145.18;100.00;60484.78;5080963;28;20023;-67
2021/07/16 00:38:19;;;;;;;10.43;3.30;;;;;;;-145.18;100.00;60484.78;5068634;28;20399;-67
2021/07/16 00:40:44;;;;;;;20.60;4.13;;;;;;;-145.18;100.00;60484.78;5080428;28;20016;-68
2021/07/16 00:43:10;;;;;;;9.07;3.83;;;;;;;-145.18;100.00;60484.78;5074939;28;20153;-67
2021/07/16 00:45:35;;;;;;;8.90;3.83;;;;;;;-145.18;100.00;60484.78;5080846;28;20038;-67
2021/07/16 00:48:02;;;;;;;11.17;4.30;;;;;;;-145.18;100.00;60484.78;5070940;28;20062;-67
2021/07/16 00:50:32;;;;;;;12.70;3.97;;;;;;;-145.18;100.00;60484.78;5081141;28;20081;-67
2021/07/16 00:52:58;;;;;;;11.77;3.77;;;;;;;-145.18;100.00;60484.78;5071857;28;20514;-68
2021/07/16 00:55:24;;;;;;;13.20;3.80;;;;;;;-145.18;100.00;60484.78;5080688;28;20034;-68
2021/07/16 00:57:50;;;;;;;12.20;3.80;;;;;;;-145.18;100.00;60484.78;5072797;28;20028;-67
2021/07/16 01:00:17;;;;;;;13.57;3.87;;;;;;;-145.18;100.00;60484.78;5081089;28;20036;-67
2021/07/16 01:02:42;;;;;;;13.27;3.80;;;;;;;-145.18;100.00;60484.78;5070879;28;20127;-68
2021/07/16 01:05:11;;;;;;;14.63;4.33;;;;;;;-145.18;100.00;60484.78;5080404;28;20467;-67
2021/07/16 01:07:37;;;;;;;13.03;4.03;;;;;;;-145.18;100.00;60484.78;5072825;28;20464;-67
2021/07/16 01:10:05;;;;;;;11.97;3.90;;;;;;;-145.18;100.00;60484.78;5080266;28;20050;-67
2021/07/16 01:12:32;;;;;;;12.40;3.33;;;;;;;-145.18;100.00;60484.78;5207554;22;20043;-68
2021/07/16 01:14:59;;;;;;;20.27;3.63;;;;;;;-145.18;100.00;60484.78;5100638;28;20036;-71
2021/07/16 01:17:25;;;;;;;10.77;3.60;;;;;;;-145.18;100.00;60484.78;5090162;28;20191;-71
2021/07/16 01:19:57;;;;;;;18.67;3.80;;;;;;;-145.18;100.00;60484.78;5097255;27;20412;-71
2021/07/16 01:22:26;;;;;;;8.40;3.50;;;;;;;-145.18;100.00;60484.78;5096391;28;20438;-71
2021/07/16 01:24:52;;;;;;;11.33;3.80;;;;;;;-145.18;100.00;60484.78;5100741;28;20028;-71
2021/07/16 01:27:22;;;;;;;17.33;4.43;;;;;;;-145.18;100.00;60484.78;5109193;27;20267;-71
2021/07/16 01:29:49;;;;;;;11.63;3.50;;;;;;;-145.18;100.00;60484.78;5101175;27;20028;-71
2021/07/16 01:32:17;;;;;;;11.47;3.73;;;;;;;-145.18;100.00;60484.78;5104513;27;20020;-71
2021/07/16 01:34:44;;;;;;;13.03;3.27;;;;;;;-145.18;100.00;60484.78;5100377;28;20051;-71
2021/07/16 01:37:10;;;;;;;16.47;4.30;;;;;;;-145.18;100.00;60484.78;5099735;28;20047;-71
2021/07/16 01:39:36;;;;;;;13.13;3.60;;;;;;;-145.18;100.00;60484.78;5100680;28;20553;-71
2021/07/16 01:42:03;;;;;;;15.07;3.83;;;;;;;-145.18;100.00;60484.78;5106033;27;20069;-71
2021/07/16 01:44:29;;;;;;;11.43;3.43;;;;;;;-145.18;100.00;60484.78;5100075;28;20028;-71
2021/07/16 01:46:54;;;;;;;12.13;3.33;;;;;;;-145.18;100.00;60484.78;5097683;28;20035;-71
2021/07/16 01:49:20;;;;;;;12.30;3.93;;;;;;;-145.18;100.00;60484.78;5099925;28;20027;-71
2021/07/16 01:51:46;;;;;;;12.50;3.80;;;;;;;-145.18;100.00;60484.78;5099268;28;20047;-71
2021/07/16 01:54:11;;;;;;;12.73;3.90;;;;;;;-145.18;100.00;60484.78;5100204;28;20047;-71
2021/07/16 01:56:37;;;;;;;9.83;3.40;;;;;;;-145.18;100.00;60484.78;5099661;28;20036;-71
2021/07/16 01:59:03;;;;;;;13.00;4.17;;;;;;;-145.18;100.00;60484.78;5096272;28;20510;-71
2021/07/16 02:01:32;;;;;;;13.27;3.80;;;;;;;-145.18;100.00;60484.78;5099213;28;20078;-71
2021/07/16 02:03:57;;;;;;;13.43;3.70;;;;;;;-145.18;100.00;60484.78;5084248;28;20054;-71
2021/07/16 02:06:23;;;;;;;14.07;4.13;;;;;;;-145.18;100.00;60484.78;5081104;28;20387;-71
2021/07/16 02:08:48;;;;;;;10.37;4.00;;;;;;;-145.18;100.00;60484.78;5085022;28;20023;-71
2021/07/16 02:11:15;;;;;;;10.20;3.63;;;;;;;-145.18;100.00;60484.78;5079506;28;20103;-71
2021/07/16 02:13:41;;;;;;;14.87;4.30;;;;;;;-145.18;100.00;60484.78;5084482;28;20039;-71
2021/07/16 02:16:06;;;;;;;11.77;3.60;;;;;;;-145.18;100.00;60484.78;5079619;28;20028;-71
2021/07/16 02:18:35;;;;;;;15.00;4.27;;;;;;;-145.18;100.00;60484.78;5083891;28;20036;-71
2021/07/16 02:21:00;;;;;;;13.13;4.43;;;;;;;-145.18;100.00;60484.78;5079642;28;20622;-71
2021/07/16 02:23:29;;;;;;;14.30;4.30;;;;;;;-145.18;100.00;60484.78;5082928;28;20108;-70
2021/07/16 02:25:54;;;;;;;10.33;4.00;;;;;;;-145.18;100.00;60484.78;5079158;28;20039;-71
2021/07/16 02:28:22;;;;;;;12.17;3.90;;;;;;;-145.18;100.00;60484.78;5081047;28;20043;-71
2021/07/16 02:30:49;;;;;;;14.97;4.57;;;;;;;-145.18;100.00;60484.78;5078964;28;20579;-71
2021/07/16 02:33:16;;;;;;;12.23;3.67;;;;;;;-145.18;100.00;60484.78;5076520;28;20556;-70
2021/07/16 02:35:43;;;;;;;11.37;3.67;;;;;;;-145.18;100.00;60484.78;5078879;28;20034;-71
2021/07/16 02:38:09;;;;;;;12.37;4.27;;;;;;;-145.18;100.00;60484.78;5080398;28;20040;-70
2021/07/16 02:40:35;;;;;;;12.47;4.13;;;;;;;-145.18;100.00;60484.78;5078545;28;20134;-70
2021/07/16 02:43:02;;;;;;;13.87;3.90;;;;;;;-145.18;100.00;60484.78;5092104;28;20024;-70
2021/07/16 02:45:27;;;;;;;13.47;4.03;;;;;;;-145.18;100.00;60484.78;5079343;28;20087;-70
2021/07/16 02:47:53;;;;;;;15.37;3.90;;;;;;;-145.18;100.00;60484.78;5091018;28;20495;-70
2021/07/16 02:50:33;;;;;;;13.33;3.83;;;;;;;-145.18;100.00;60484.78;5078074;28;20527;-70
2021/07/16 02:52:58;;;;;;;16.50;4.00;;;;;;;-145.18;100.00;60484.78;5080609;28;20563;-70
2021/07/16 02:55:24;;;;;;;13.70;4.20;;;;;;;-145.18;100.00;60484.78;5083353;28;20038;-70
2021/07/16 02:57:52;;;;;;;11.43;4.53;;;;;;;-145.18;100.00;60484.78;5092746;28;20028;-70
2021/07/16 03:00:19;;;;;;;16.83;3.80;;;;;;;-145.18;100.00;60484.78;5082434;28;20154;-73
2021/07/16 03:02:48;;;;;;;15.13;4.10;;;;;;;-145.18;100.00;60484.78;5082213;28;20346;-71
2021/07/16 03:05:16;;;;;;;20.67;4.57;;;;;;;-145.18;100.00;60484.78;5082545;28;20213;-71
2021/07/16 03:07:42;;;;;;;10.53;3.50;;;;;;;-145.18;100.00;60484.78;5087496;28;20089;-70
2021/07/16 03:10:10;;;;;;;16.30;4.43;;;;;;;-145.18;100.00;60484.78;5082744;28;20036;-71
2021/07/16 03:12:37;;;;;;;14.50;4.00;;;;;;;-145.18;100.00;60484.78;5086634;28;20435;-71
2021/07/16 03:15:08;;;;;;;16.43;4.20;;;;;;;-145.18;100.00;60484.78;5063000;28;20025;-70
2021/07/16 03:17:36;;;;;;;17.55;4.03;;;;;;;-145.18;100.00;60484.78;5067445;28;20285;-70
2021/07/16 03:20:05;;;;;;;14.97;4.63;;;;;;;-145.18;100.00;60484.78;5062648;28;20032;-70
2021/07/16 03:22:30;;;;;;;16.87;4.03;;;;;;;-145.18;100.00;60484.78;5066012;28;20212;-70
2021/07/16 03:24:56;;;;;;;12.50;4.30;;;;;;;-145.18;100.00;60484.78;5065009;28;20115;-70
2021/07/16 03:27:21;;;;;;;16.93;4.33;;;;;;;-145.18;100.00;60484.78;5065296;28;20032;-70
2021/07/16 03:29:46;;;;;;;15.77;4.73;;;;;;;-145.18;100.00;60484.78;5075414;28;20036;-70
2021/07/16 03:32:12;;;;;;;12.23;3.83;;;;;;;-145.18;100.00;60484.78;5075410;28;20481;-70
2021/07/16 03:34:37;;;;;;;12.47;4.27;;;;;;;-145.18;100.00;60484.78;5074739;28;20058;-70
2021/07/16 03:37:03;;;;;;;11.80;4.33;;;;;;;-145.18;100.00;60484.78;5076136;28;20036;-70
2021/07/16 03:39:29;;;;;;;15.87;4.20;;;;;;;-145.18;100.00;60484.78;5061134;28;20188;-70
2021/07/16 03:41:54;;;;;;;17.20;4.37;;;;;;;-145.18;100.00;60484.78;5067142;28;20031;-71
2021/07/16 03:44:20;;;;;;;14.50;3.97;;;;;;;-145.18;100.00;60484.78;5069701;28;20028;-70
2021/07/16 03:46:45;;;;;;;17.33;4.60;;;;;;;-145.18;100.00;60484.78;5067467;28;20138;-70
2021/07/16 03:49:11;;;;;;;11.70;4.40;;;;;;;-145.18;100.00;60484.78;5069241;28;20052;-70
2021/07/16 03:51:36;;;;;;;18.13;4.30;;;;;;;-145.18;100.00;60484.78;5067622;28;20031;-70
2021/07/16 03:54:02;;;;;;;16.20;3.90;;;;;;;-145.18;100.00;60484.78;5069232;28;20238;-71
2021/07/16 03:56:28;;;;;;;17.37;4.60;;;;;;;-145.18;100.00;60484.78;5066589;28;20032;-71
2021/07/16 03:58:53;;;;;;;15.03;4.27;;;;;;;-145.18;100.00;60484.78;5069805;28;20029;-71
2021/07/16 04:01:19;;;;;;;16.53;4.43;;;;;;;-145.18;100.00;60484.78;5061944;28;20231;-71
2021/07/16 04:03:44;;;;;;;14.20;4.00;;;;;;;-145.18;100.00;60484.78;5067083;28;20056;-70
2021/07/16 04:06:10;;;;;;;15.50;4.13;;;;;;;-145.18;100.00;60484.78;5067236;28;20034;-73
2021/07/16 04:08:37;;;;;;;14.73;4.37;;;;;;;-145.18;100.00;60484.78;5075792;28;20055;-71
2021/07/16 04:11:03;;;;;;;16.27;3.93;;;;;;;-145.18;100.00;60484.78;5074199;28;20039;-70
2021/07/16 04:13:30;;;;;;;16.60;4.10;;;;;;;-145.18;100.00;60484.78;5064143;28;20037;-70
2021/07/16 04:15:55;;;;;;;11.67;4.07;;;;;;;-145.18;100.00;60484.78;5076656;28;20404;-71
2021/07/16 04:18:21;;;;;;;13.47;4.80;;;;;;;-145.18;100.00;60484.78;5068397;28;20028;-70
2021/07/16 04:20:46;;;;;;;12.70;4.70;;;;;;;-145.18;100.00;60484.78;5061429;28;20024;-70
2021/07/16 04:23:12;;;;;;;17.77;4.03;;;;;;;-145.18;100.00;60484.78;5064578;28;20327;-70
2021/07/16 04:25:37;;;;;;;17.40;3.70;;;;;;;-145.18;100.00;60484.78;5061131;28;20207;-70
2021/07/16 04:28:03;;;;;;;14.50;3.70;;;;;;;-145.18;100.00;60484.78;5063604;28;20075;-70
2021/07/16 04:30:31;;;;;;;11.40;3.23;;;;;;;-145.18;100.00;60484.78;5080585;28;20095;-70
2021/07/16 04:32:59;;;;;;;16.80;3.27;;;;;;;-145.18;100.00;60484.78;5063654;28;20033;-70
2021/07/16 04:35:25;;;;;;;13.80;3.87;;;;;;;-145.18;100.00;60484.78;5060385;28;20020;-70
2021/07/16 04:37:50;;;;;;;16.03;4.30;;;;;;;-145.18;100.00;60484.78;5061387;28;20024;-70
2021/07/16 04:40:22;;;;;;;13.73;3.77;;;;;;;-145.18;100.00;60484.78;5059757;28;20110;-70
2021/07/16 04:42:52;;;;;;;16.23;4.88;;;;;;;-145.18;100.00;60484.78;5061447;28;20385;-70
2021/07/16 04:45:19;;;;;;;14.90;3.40;;;;;;;-145.18;100.00;60484.78;5062328;28;20031;-70
2021/07/16 04:47:44;;;;;;;10.77;3.77;;;;;;;-145.18;100.00;60484.78;5080643;28;20031;-71
2021/07/16 04:50:12;;;;;;;11.70;3.00;;;;;;;-145.18;100.00;60484.78;5067228;28;20032;-70
2021/07/16 04:52:49;;;;;;;10.83;3.00;;;;;;;-145.18;100.00;60484.78;5071640;28;20098;-70
2021/07/16 04:55:15;;;;;;;11.80;3.50;;;;;;;-145.18;100.00;60484.78;5062977;28;20120;-70
2021/07/16 04:57:41;;;;;;;15.27;3.80;;;;;;;-145.18;100.00;60484.78;5071882;28;20043;-70
2021/07/16 05:00:09;;;;;;;14.37;3.67;;;;;;;-145.18;100.00;60484.78;5071213;28;20030;-70
2021/07/16 05:02:34;;;;;;;11.57;3.60;;;;;;;-145.18;100.00;60484.78;5063446;28;20052;-70
2021/07/16 05:05:00;;;;;;;11.53;3.97;;;;;;;-145.18;100.00;60484.78;5080069;28;20117;-70
2021/07/16 05:07:25;;;;;;;9.37;4.10;;;;;;;-145.18;100.00;60484.78;5065109;28;20523;-70
2021/07/16 05:09:51;;;;;;;12.23;3.67;;;;;;;-145.18;100.00;60484.78;5071233;28;20046;-70
2021/07/16 05:12:16;;;;;;;18.77;4.30;;;;;;;-145.18;100.00;60484.78;5077968;28;20573;-71
2021/07/16 05:14:42;;;;;;;10.73;3.33;;;;;;;-145.18;100.00;60484.78;5079876;28;20044;-70
2021/07/16 05:17:08;;;;;;;18.90;3.70;;;;;;;-145.18;100.00;60484.78;5083495;28;20035;-70
2021/07/16 05:19:33;;;;;;;13.30;3.97;;;;;;;-145.18;100.00;60484.78;5080665;28;20292;-70
2021/07/16 05:21:59;;;;;;;13.03;3.50;;;;;;;-145.18;100.00;60484.78;5081245;28;20833;-70
2021/07/16 05:24:24;;;;;;;11.20;3.37;;;;;;;-145.18;100.00;60484.78;5082993;28;20310;-70
2021/07/16 05:26:50;;;;;;;13.77;3.03;;;;;;;-145.18;100.00;60484.78;5081962;28;20536;-70
2021/07/16 05:29:15;;;;;;;13.23;3.10;;;;;;;-145.18;100.00;60484.78;5079844;28;20078;-70
2021/07/16 05:31:40;;;;;;;10.73;3.10;;;;;;;-145.18;100.00;60484.78;5084018;28;20084;-70
2021/07/16 05:34:06;;;;;;;12.17;3.00;;;;;;;-145.18;100.00;60484.78;5079607;28;20032;-73
2021/07/16 05:36:32;;;;;;;12.27;3.33;;;;;;;-145.18;100.00;60484.78;5077701;28;20385;-71
2021/07/16 05:39:03;;;;;;;14.63;3.17;;;;;;;-145.18;100.00;60484.78;5079261;28;20028;-71
2021/07/16 05:41:29;;;;;;;11.17;3.60;;;;;;;-145.18;100.00;60484.78;5080229;28;20020;-71
2021/07/16 05:43:54;;;;;;;11.30;2.97;;;;;;;-145.18;100.00;60484.78;5077847;28;20040;-71
2021/07/16 05:46:20;;;;;;;13.23;3.03;;;;;;;-145.18;100.00;60484.78;5081190;28;20703;-71
2021/07/16 05:48:46;;;;;;;15.33;3.80;;;;;;;-145.18;100.00;60484.78;5088840;28;20115;-71
2021/07/16 05:51:12;;;;;;;11.33;3.57;;;;;;;-145.18;100.00;60484.78;5080034;28;20445;-71
2021/07/16 05:53:38;;;;;;;12.43;3.40;;;;;;;-145.18;100.00;60484.78;5088141;28;20070;-71
2021/07/16 05:56:04;;;;;;;10.90;3.70;;;;;;;-145.18;100.00;60484.78;5079853;28;20035;-71
2021/07/16 05:58:29;;;;;;;15.00;3.40;;;;;;;-145.18;100.00;60484.78;5087529;28;20032;-71
2021/07/16 06:00:55;;;;;;;18.97;3.10;;;;;;;-145.18;100.00;60484.78;5079793;28;20046;-71
2021/07/16 06:03:23;;;;;;;9.60;3.53;;;;;;;-145.18;100.00;60484.78;5086143;28;20443;-71
2021/07/16 06:05:49;;;;;;;21.80;4.83;;;;;;;-145.18;100.00;60484.78;5079908;28;20381;-72
2021/07/16 06:08:15;;;;;;;12.90;3.83;;;;;;;-145.18;100.00;60484.78;5080156;28;20269;-71
2021/07/16 06:10:40;;;;;;;12.97;3.17;;;;;;;-145.18;100.00;60484.78;5079710;28;20028;-71
2021/07/16 06:13:06;;;;;;;14.97;3.30;;;;;;;-145.18;100.00;60484.78;5083765;28;20055;-71
2021/07/16 06:15:31;;;;;;;12.83;3.07;;;;;;;-145.18;100.00;60484.78;5079801;28;20043;-71
2021/07/16 06:17:57;;;;;;;24.60;3.80;;;;;;;-145.18;100.00;60484.78;5082198;28;20066;-71
2021/07/16 06:20:26;;;;;;;10.20;3.07;;;;;;;-145.18;100.00;60484.78;5079511;28;20496;-72
2021/07/16 06:22:51;;;;;;;12.67;3.50;;;;;;;-145.18;100.00;60484.78;5081311;28;20035;-72
2021/07/16 06:25:18;;;;;;;17.83;3.87;;;;;;;-145.18;100.00;60484.78;5079561;28;20027;-72
2021/07/16 06:27:44;;;;;;;13.80;3.57;;;;;;;-145.18;100.00;60484.78;5079743;28;20162;-72
2021/07/16 06:30:11;;;;;;;20.63;3.83;;;;;;;-145.18;100.00;60484.78;5079463;28;20035;-72
2021/07/16 06:32:37;;;;;;;13.37;2.87;;;;;;;-145.18;100.00;60484.78;5089925;28;20032;-72
2021/07/16 06:35:08;;;;;;;16.70;3.73;;;;;;;-145.18;100.00;60484.78;5079080;28;20032;-72
2021/07/16 06:37:35;;;;;;;9.52;2.85;;;;;;;-145.18;100.00;60484.78;5090484;28;20112;-72
2021/07/16 06:40:01;;;;;;;19.23;3.92;;;;;;;-145.18;100.00;60484.78;5080061;28;20047;-72
2021/07/16 06:42:27;;;;;;;12.73;2.88;;;;;;;-145.18;100.00;60484.78;5089299;28;20023;-72
2021/07/16 06:44:53;;;;;;;11.93;2.78;;;;;;;-145.18;100.00;60484.78;5079771;28;20081;-72
2021/07/16 06:47:18;;;;;;;14.45;3.17;;;;;;;-145.18;100.00;60484.78;5082469;28;20115;-72
2021/07/16 06:49:46;;;;;;;15.68;3.13;;;;;;;-145.18;100.00;60484.78;5078742;28;20035;-74
2021/07/16 06:52:12;;;;;;;10.52;2.95;;;;;;;-145.18;100.00;60484.78;5081525;28;20031;-73
2021/07/16 06:54:38;;;;;;;11.10;3.45;;;;;;;-145.18;100.00;60484.78;5078765;28;20035;-73
2021/07/16 06:57:04;;;;;;;15.10;3.55;;;;;;;-145.18;100.00;60484.78;5080367;28;20035;-73
2021/07/16 06:59:30;;;;;;;16.60;2.92;;;;;;;-145.18;100.00;60484.78;5079296;28;20067;-72
2021/07/16 07:01:55;;;;;;;15.80;2.45;;;;;;;-145.18;100.00;60484.78;5079123;28;20039;-72
2021/07/16 07:04:21;;;;;;;12.98;2.78;;;;;;;-145.18;100.00;60484.78;5079039;28;20091;-72
2021/07/16 07:06:46;;;;;;;11.57;2.70;;;;;;;-145.18;100.00;60484.78;5083914;28;20103;-72
2021/07/16 07:09:12;;;;;;;7.55;2.58;;;;;;;-145.18;100.00;60484.78;5086728;28;20097;-72
2021/07/16 07:11:37;;;;;;;11.43;2.40;;;;;;;-145.18;100.00;60484.78;5082520;28;20527;-72
2021/07/16 07:14:04;;;;;;;11.75;2.50;;;;;;;-145.18;100.00;60484.78;5085509;28;20055;-72
2021/07/16 07:16:29;;;;;;;12.90;3.03;;;;;;;-145.18;100.00;60484.78;5081544;28;20495;-72
2021/07/16 07:18:55;;;;;;;11.25;2.30;;;;;;;-145.18;100.00;60484.78;5087137;28;20016;-72
2021/07/16 07:21:20;;;;;;;12.60;2.45;;;;;;;-145.18;100.00;60484.78;5079946;28;20387;-72
2021/07/16 07:23:46;;;;;;;10.35;2.10;;;;;;;-145.18;100.00;60484.78;5086952;28;20270;-72
2021/07/16 07:26:12;;;;;;;10.65;2.13;;;;;;;-145.18;100.00;60484.78;5078804;28;20020;-72
2021/07/16 07:28:37;;;;;;;14.38;2.38;;;;;;;-145.18;100.00;60484.78;5086757;28;20153;-72
2021/07/16 07:31:03;;;;;;;14.48;2.45;;;;;;;-145.18;100.00;60484.78;5078819;28;20066;-72
2021/07/16 07:33:28;;;;;;;10.80;2.88;;;;;;;-145.18;100.00;60484.78;5085804;28;20043;-71
2021/07/16 07:35:56;;;;;;;12.10;2.25;;;;;;;-145.18;100.00;60484.78;5078719;28;20093;-71
2021/07/16 07:38:22;;;;;;;13.55;2.45;;;;;;;-145.18;100.00;60484.78;5086079;28;20055;-72
2021/07/16 07:40:47;;;;;;;9.40;2.17;;;;;;;-145.18;100.00;60484.78;5082706;28;20482;-72
2021/07/16 07:43:13;;;;;;;13.43;2.63;;;;;;;-145.18;100.00;60484.78;5087872;28;20104;-72
2021/07/16 07:45:38;;;;;;;12.20;3.08;;;;;;;-145.18;100.00;60484.78;5082756;28;20141;-71
2021/07/16 07:48:04;;;;;;;13.30;2.70;;;;;;;-145.18;100.00;60484.78;5085706;28;20032;-71
2021/07/16 07:50:30;;;;;;;9.45;2.58;;;;;;;-145.18;100.00;60484.78;5082576;28;20028;-71
2021/07/16 07:52:55;;;;;;;17.48;2.47;;;;;;;-145.18;100.00;60484.78;5084459;28;20343;-71
2021/07/16 07:55:23;;;;;;;11.02;2.70;;;;;;;-145.18;100.00;60484.78;5082676;28;20028;-71
2021/07/16 07:57:51;;;;;;;10.50;2.65;;;;;;;-145.18;100.00;60484.78;5083253;28;20043;-71
2021/07/16 08:00:19;;;;;;;17.70;2.40;;;;;;;-145.18;100.00;60484.78;5082099;28;20028;-71
2021/07/16 08:02:45;;;;;;;9.98;2.20;;;;;;;-145.18;100.00;60484.78;5094987;28;20028;-71
2021/07/16 08:05:12;;;;;;;10.82;2.00;;;;;;;-145.18;100.00;60484.78;5082390;28;20105;-71
2021/07/16 08:07:38;;;;;;;11.15;2.42;;;;;;;-145.18;100.00;60484.78;5093999;28;20479;-71
2021/07/16 08:10:09;;;;;;;11.68;2.58;;;;;;;-145.18;100.00;60484.78;5079099;28;20031;-71
2021/07/16 08:12:35;;;;;;;10.60;1.90;;;;;;;-145.18;100.00;60484.78;5092674;28;20262;-71
2021/07/16 08:15:01;;;;;;;16.90;3.05;;;;;;;-145.18;100.00;60484.78;5082013;28;20176;-71
2021/07/16 08:17:26;;;;;;;13.68;2.28;;;;;;;-145.18;100.00;60484.78;5091792;28;20480;-71
2021/07/16 08:19:52;;;;;;;13.63;2.40;;;;;;;-145.18;100.00;60484.78;5082044;28;20107;-71
2021/07/16 08:22:18;;;;;;;14.02;2.80;;;;;;;-145.18;100.00;60484.78;5090662;28;20034;-71
2021/07/16 08:24:43;;;;;;;15.43;3.28;;;;;;;-145.18;100.00;60484.78;5082088;28;20024;-71
2021/07/16 08:27:09;;;;;;;10.65;2.17;;;;;;;-145.18;100.00;60484.78;5089177;28;20078;-71
2021/07/16 08:29:35;;;;;;;9.15;1.98;;;;;;;-145.18;100.00;60484.78;5081536;28;20070;-72
2021/07/16 08:32:00;;;;;;;12.23;2.42;;;;;;;-145.18;100.00;60484.78;5088367;28;20028;-72
2021/07/16 08:34:26;;;;;;;11.63;2.50;;;;;;;-145.18;100.00;60484.78;5081301;28;20089;-71
2021/07/16 08:36:52;;;;;;;12.70;2.00;;;;;;;-145.18;100.00;60484.78;5086831;28;20084;-71
2021/07/16 08:39:17;;;;;;;12.27;2.38;;;;;;;-145.18;100.00;60484.78;5068105;28;20027;-71
2021/07/16 08:41:43;;;;;;;9.95;2.15;;;;;;;-145.18;100.00;60484.78;5085599;28;20027;-72
2021/07/16 08:44:09;;;;;;;9.60;2.22;;;;;;;-145.18;100.00;60484.78;5068023;28;20020;-71
2021/07/16 08:46:36;;;;;;;10.68;1.98;;;;;;;-145.18;100.00;60484.78;5084102;28;20214;-71
2021/07/16 08:49:02;;;;;;;13.35;2.63;;;;;;;-145.18;100.00;60484.78;5068282;28;20464;-71
2021/07/16 08:51:28;;;;;;;11.07;2.20;;;;;;;-145.18;100.00;60484.78;5082527;28;20111;-71
2021/07/16 08:53:55;;;;;;;10.82;2.40;;;;;;;-145.18;100.00;60484.78;5081085;28;20612;-71
2021/07/16 08:56:24;;;;;;;15.13;2.50;;;;;;;-145.18;100.00;60484.78;5081879;28;20016;-71
2021/07/16 08:58:49;;;;;;;10.50;2.65;;;;;;;-145.18;100.00;60484.78;5081181;28;20047;-71
2021/07/16 09:01:15;;;;;;;10.90;2.17;;;;;;;-145.18;100.00;60484.78;5081273;28;20024;-71
2021/07/16 09:03:58;;;;;;;13.77;2.55;;;;;;;-145.18;100.00;60484.78;5093582;28;20074;-71
2021/07/16 09:06:43;;;;;;;9.95;2.03;;;;;;;-145.18;100.00;60484.78;5082414;28;20028;-71
2021/07/16 09:09:09;;;;;;;11.27;2.17;;;;;;;-145.18;100.00;60484.78;5088671;28;20577;-71
2021/07/16 09:11:45;;;;;;;10.35;2.00;;;;;;;-145.18;100.00;60484.78;5083868;28;20027;-71
2021/07/16 09:14:29;;;;;;;9.40;2.30;;;;;;;-145.18;100.00;60484.78;5086635;28;20036;-71
2021/07/16 09:17:15;;;;;;;13.15;2.40;;;;;;;-145.18;100.00;60484.78;5086267;28;20464;-71
2021/07/16 09:19:53;;;;;;;13.63;2.90;;;;;;;-145.18;100.00;60484.78;5081633;28;20031;-71
2021/07/16 09:22:20;;;;;;;11.02;2.67;;;;;;;-145.18;100.00;60484.78;5088970;28;20186;-71
2021/07/16 09:25:00;;;;;;;10.63;3.15;;;;;;;-145.18;100.00;60484.78;5074492;28;20027;-71
2021/07/16 09:27:45;;;;;;;10.65;2.90;;;;;;;-145.18;100.00;60484.78;5086612;28;20035;-71
2021/07/16 09:30:25;;;;;;;10.77;2.80;;;;;;;-145.18;100.00;60484.78;5059979;28;20043;-71
2021/07/16 09:32:57;;;;;;;11.48;2.88;;;;;;;-145.18;100.00;60484.78;5083538;28;20343;-71
2021/07/16 09:35:40;;;;;;;15.57;3.35;;;;;;;-145.18;100.00;60484.78;5077679;28;20100;-71
2021/07/16 09:38:08;;;;;;;10.95;2.53;;;;;;;-145.18;100.00;60484.78;5082652;28;20035;-71
2021/07/16 09:40:38;;;;;;;13.23;2.35;;;;;;;-145.18;100.00;60484.78;5077762;28;20040;-71
2021/07/16 09:43:16;;;;;;;9.30;2.30;;;;;;;-145.18;100.00;60484.78;5081310;28;20184;-72
2021/07/16 09:46:00;;;;;;;15.02;2.85;;;;;;;-145.18;100.00;60484.78;5077607;28;20492;-71
2021/07/16 09:48:34;;;;;;;8.60;2.22;;;;;;;-145.18;100.00;60484.78;5081428;28;20508;-71
2021/07/16 09:51:29;;;;;;;14.15;3.15;;;;;;;-145.18;100.00;60484.78;5077589;28;20134;-71
2021/07/16 09:54:00;;;;;;;13.65;2.45;;;;;;;-145.18;100.00;60484.78;5045784;28;20562;-71
2021/07/16 09:56:28;;;;;;;10.70;2.28;;;;;;;-145.18;100.00;60484.78;5078679;28;20120;-71
2021/07/16 09:59:10;;;;;;;8.90;2.63;;;;;;;-145.18;100.00;60484.78;5077835;28;20028;-71
2021/07/16 10:01:38;;;;;;;8.68;2.13;;;;;;;-145.18;100.00;60484.78;5077503;28;20024;-71
2021/07/16 10:04:09;;;;;;;12.05;2.65;;;;;;;-145.18;100.00;60484.78;5077430;28;20657;-71
2021/07/16 10:06:35;;;;;;;11.27;2.03;;;;;;;-145.18;100.00;60484.78;5080485;28;20067;-71
2021/07/16 10:09:02;;;;;;;10.80;2.53;;;;;;;-145.18;100.00;60484.78;5086532;28;20377;-72
2021/07/16 10:11:29;;;;;;;13.38;2.63;;;;;;;-145.18;100.00;60484.78;5079370;28;20031;-71
2021/07/16 10:13:56;;;;;;;11.27;2.40;;;;;;;-145.18;100.00;60484.78;5086009;28;20445;-72
2021/07/16 10:16:22;;;;;;;11.93;3.08;;;;;;;-145.18;100.00;60484.78;5078302;28;20090;-71
2021/07/16 10:18:48;;;;;;;10.02;2.67;;;;;;;-145.18;100.00;60484.78;5086014;28;20119;-71
2021/07/16 10:21:14;;;;;;;14.55;3.15;;;;;;;-145.18;100.00;60484.78;5077027;28;20032;-71
2021/07/16 10:23:40;;;;;;;10.35;2.65;;;;;;;-145.18;100.00;60484.78;5068487;28;20316;-71
2021/07/16 10:26:11;;;;;;;13.15;2.78;;;;;;;-145.18;100.00;60484.78;5077109;28;20028;-71
2021/07/16 10:28:41;;;;;;;12.45;2.60;;;;;;;-145.18;100.00;60484.78;5084635;28;20028;-71
2021/07/16 10:31:33;;;;;;;13.65;3.30;;;;;;;-145.18;100.00;60484.78;5077000;28;20192;-71
2021/07/16 10:34:19;;;;;;;10.27;2.45;;;;;;;-145.18;100.00;60484.78;5076605;28;20271;-71
2021/07/16 10:36:49;;;;;;;15.65;2.63;;;;;;;-145.18;100.00;60484.78;5066531;28;20036;-71
2021/07/16 10:39:22;;;;;;;12.50;2.92;;;;;;;-145.18;100.00;60484.78;5077156;28;20219;-71
2021/07/16 10:41:49;;;;;;;14.38;2.45;;;;;;;-145.18;100.00;60484.78;5074866;28;20059;-71
2021/07/16 10:44:35;;;;;;;17.00;3.28;;;;;;;-145.18;100.00;60484.78;5076618;28;20620;-71
2021/07/16 10:47:00;;;;;;;8.23;2.60;;;;;;;-145.18;100.00;60484.78;5079106;28;20036;-71
2021/07/16 10:49:53;;;;;;;11.43;2.83;;;;;;;-145.18;100.00;60484.78;5077304;28;20097;-71
2021/07/16 10:52:43;;;;;;;16.13;2.78;;;;;;;-145.18;100.00;60484.78;5078930;28;20463;-71
2021/07/16 10:55:09;;;;;;;10.95;2.55;;;;;;;-145.18;100.00;60484.78;5076853;28;20451;-72
2021/07/16 10:57:43;;;;;;;11.70;2.88;;;;;;;-145.18;100.00;60484.78;5078542;28;20426;-72
2021/07/16 11:00:13;;;;;;;9.05;2.40;;;;;;;-145.18;100.00;60484.78;5076795;28;20035;-71
2021/07/16 11:02:46;;;;;;;12.40;2.47;;;;;;;-145.18;100.00;60484.78;5088660;28;20107;-72
2021/07/16 11:05:49;;;;;;;14.52;2.80;;;;;;;-145.18;100.00;60484.78;5066243;28;20067;-71